createdAt,value
2018-08-06T00:00:56.625Z,0
2018-08-06T00:01:56.900Z,0
2018-08-06T00:02:57.173Z,0
2018-08-06T00:03:56.642Z,0
2018-08-06T00:04:56.401Z,0
2018-08-06T00:05:56.894Z,0
2018-08-06T00:06:56.918Z,0
2018-08-06T00:07:57.170Z,0
2018-08-06T00:08:56.926Z,0
2018-08-06T00:09:56.422Z,0
2018-08-06T00:10:56.402Z,0
2018-08-06T00:11:56.925Z,0
2018-08-06T00:12:56.688Z,0
2018-08-06T00:13:56.923Z,0
2018-08-06T00:14:56.930Z,0
2018-08-06T00:15:56.945Z,0
2018-08-06T00:16:56.431Z,0
2018-08-06T00:17:57.770Z,0
2018-08-06T00:18:56.680Z,0
2018-08-06T00:19:56.688Z,0
2018-08-06T00:20:56.693Z,0
2018-08-06T00:21:56.681Z,0
2018-08-06T00:22:56.963Z,0
2018-08-06T00:23:56.454Z,0
2018-08-06T00:24:56.445Z,0
2018-08-06T00:25:56.707Z,0
2018-08-06T00:26:57.006Z,0
2018-08-06T00:27:56.712Z,0
2018-08-06T00:28:56.969Z,0
2018-08-06T00:29:56.973Z,0
2018-08-06T00:30:56.777Z,0
2018-08-06T00:31:56.466Z,0
2018-08-06T00:32:56.744Z,0
2018-08-06T00:33:57.255Z,0
2018-08-06T00:34:56.747Z,0
2018-08-06T00:35:56.831Z,0
2018-08-06T00:36:56.988Z,0
2018-08-06T00:37:56.479Z,0
2018-08-06T00:38:57.252Z,0
2018-08-06T00:39:56.497Z,0
2018-08-06T00:40:56.998Z,0
2018-08-06T00:41:56.806Z,0
2018-08-06T00:42:56.520Z,0
2018-08-06T00:43:56.505Z,0
2018-08-06T00:44:57.027Z,0
2018-08-06T00:45:56.507Z,0
2018-08-06T00:46:57.280Z,0
2018-08-06T00:47:57.032Z,0
2018-08-06T00:48:57.064Z,0
2018-08-06T00:49:57.032Z,0
2018-08-06T00:50:56.783Z,0
2018-08-06T00:51:56.776Z,0
2018-08-06T00:52:57.364Z,0
2018-08-06T00:53:56.785Z,0
2018-08-06T00:54:57.317Z,0
2018-08-06T00:55:57.094Z,0
2018-08-06T00:56:57.307Z,0
2018-08-06T00:57:56.546Z,0
2018-08-06T00:58:56.296Z,0
2018-08-06T00:59:57.062Z,0
2018-08-06T01:00:56.563Z,0
2018-08-06T01:01:57.072Z,0
2018-08-06T01:02:56.572Z,0
2018-08-06T01:03:57.077Z,0
2018-08-06T01:04:56.850Z,0
2018-08-06T01:05:56.835Z,0
2018-08-06T01:06:57.342Z,0
2018-08-06T01:07:56.836Z,0
2018-08-06T01:08:56.840Z,0
2018-08-06T01:09:57.107Z,0
2018-08-06T01:10:56.840Z,0
2018-08-06T01:11:56.593Z,0
2018-08-06T01:12:57.363Z,0
2018-08-06T01:13:56.845Z,0
2018-08-06T01:14:56.849Z,0
2018-08-06T01:15:57.365Z,0
2018-08-06T01:16:57.371Z,0
2018-08-06T01:17:57.376Z,0
2018-08-06T01:18:57.109Z,0
2018-08-06T01:19:56.621Z,0
2018-08-06T01:20:57.142Z,0
2018-08-06T01:21:56.871Z,0
2018-08-06T01:22:57.398Z,0
2018-08-06T01:23:57.143Z,0
2018-08-06T01:24:57.154Z,0
2018-08-06T01:25:56.629Z,0
2018-08-06T01:26:57.133Z,0
2018-08-06T01:27:56.892Z,0
2018-08-06T01:28:56.633Z,0
2018-08-06T01:29:56.646Z,0
2018-08-06T01:30:56.669Z,0
2018-08-06T01:31:56.915Z,0
2018-08-06T01:32:57.153Z,0
2018-08-06T01:33:57.464Z,0
2018-08-06T01:34:57.426Z,0
2018-08-06T01:35:57.418Z,0
2018-08-06T01:36:56.912Z,0
2018-08-06T01:37:56.669Z,0
2018-08-06T01:38:57.173Z,0
2018-08-06T01:39:57.180Z,0
2018-08-06T01:40:56.673Z,0
2018-08-06T01:41:57.170Z,0
2018-08-06T01:42:57.175Z,0
2018-08-06T01:43:57.435Z,0
2018-08-06T01:44:57.479Z,0
2018-08-06T01:45:57.186Z,0
2018-08-06T01:46:56.944Z,0
2018-08-06T01:47:58.507Z,0
2018-08-06T01:48:57.444Z,0
2018-08-06T01:49:57.201Z,0
2018-08-06T01:50:57.209Z,0
2018-08-06T01:51:57.459Z,0
2018-08-06T01:52:57.455Z,0
2018-08-06T01:53:57.453Z,0
2018-08-06T01:54:57.011Z,0
2018-08-06T01:55:57.222Z,0
2018-08-06T01:56:56.701Z,0
2018-08-06T01:57:57.215Z,0
2018-08-06T01:58:57.221Z,0
2018-08-06T01:59:56.991Z,0
2018-08-06T02:00:57.481Z,0
2018-08-06T02:01:57.477Z,0
2018-08-06T02:02:57.226Z,0
2018-08-06T02:03:57.238Z,0
2018-08-06T02:04:57.492Z,0
2018-08-06T02:05:57.244Z,0
2018-08-06T02:06:57.242Z,0
2018-08-06T02:07:57.257Z,0
2018-08-06T02:08:56.987Z,0
2018-08-06T02:09:57.249Z,0
2018-08-06T02:10:57.513Z,0
2018-08-06T02:11:57.517Z,0
2018-08-06T02:12:57.003Z,0
2018-08-06T02:13:57.247Z,0
2018-08-06T02:14:57.281Z,0
2018-08-06T02:15:57.267Z,0
2018-08-06T02:16:57.008Z,0
2018-08-06T02:17:57.269Z,0
2018-08-06T02:18:57.531Z,0
2018-08-06T02:19:57.554Z,0
2018-08-06T02:20:57.542Z,0
2018-08-06T02:21:57.030Z,0
2018-08-06T02:22:57.552Z,0
2018-08-06T02:23:57.284Z,0
2018-08-06T02:24:57.553Z,0
2018-08-06T02:25:57.283Z,0
2018-08-06T02:26:57.573Z,0
2018-08-06T02:27:57.543Z,0
2018-08-06T02:28:57.296Z,0
2018-08-06T02:29:57.544Z,0
2018-08-06T02:30:57.331Z,0
2018-08-06T02:31:57.334Z,0
2018-08-06T02:32:57.362Z,0
2018-08-06T02:33:57.345Z,0
2018-08-06T02:34:57.061Z,0
2018-08-06T02:35:57.593Z,0
2018-08-06T02:36:57.308Z,0
2018-08-06T02:37:57.308Z,0
2018-08-06T02:38:57.341Z,0
2018-08-06T02:39:57.076Z,0
2018-08-06T02:40:57.340Z,0
2018-08-06T02:41:57.324Z,0
2018-08-06T02:42:57.600Z,0
2018-08-06T02:43:57.345Z,0
2018-08-06T02:44:57.590Z,0
2018-08-06T02:45:57.093Z,0
2018-08-06T02:46:57.666Z,0
2018-08-06T02:47:57.592Z,0
2018-08-06T02:48:57.600Z,0
2018-08-06T02:49:57.353Z,0
2018-08-06T02:50:57.600Z,0
2018-08-06T02:51:56.580Z,0
2018-08-06T02:52:57.694Z,0
2018-08-06T02:53:57.358Z,0
2018-08-06T02:54:57.093Z,0
2018-08-06T02:55:57.361Z,0
2018-08-06T02:56:57.371Z,0
2018-08-06T02:57:57.641Z,0
2018-08-06T02:58:56.856Z,0
2018-08-06T02:59:57.635Z,0
2018-08-06T03:00:56.855Z,0
2018-08-06T03:01:57.393Z,0
2018-08-06T03:02:57.383Z,0
2018-08-06T03:03:57.384Z,0
2018-08-06T03:04:57.644Z,0
2018-08-06T03:05:57.461Z,0
2018-08-06T03:06:57.654Z,0
2018-08-06T03:07:57.404Z,0
2018-08-06T03:08:57.679Z,0
2018-08-06T03:09:57.445Z,0
2018-08-06T03:10:57.129Z,0
2018-08-06T03:11:57.395Z,0
2018-08-06T03:12:57.654Z,0
2018-08-06T03:13:57.673Z,0
2018-08-06T03:14:57.674Z,0
2018-08-06T03:15:57.426Z,0
2018-08-06T03:16:57.890Z,0
2018-08-06T03:17:57.715Z,0
2018-08-06T03:18:57.414Z,0
2018-08-06T03:19:57.180Z,0
2018-08-06T03:20:57.447Z,0
2018-08-06T03:21:57.418Z,0
2018-08-06T03:22:56.908Z,0
2018-08-06T03:23:57.445Z,0
2018-08-06T03:24:57.185Z,0
2018-08-06T03:25:56.657Z,0
2018-08-06T03:26:57.679Z,0
2018-08-06T03:27:57.430Z,0
2018-08-06T03:28:57.177Z,0
2018-08-06T03:29:57.701Z,0
2018-08-06T03:30:57.729Z,0
2018-08-06T03:31:57.718Z,0
2018-08-06T03:32:56.941Z,0
2018-08-06T03:33:57.481Z,0
2018-08-06T03:34:57.714Z,0
2018-08-06T03:35:57.450Z,0
2018-08-06T03:36:57.214Z,0
2018-08-06T03:37:57.455Z,0
2018-08-06T03:38:56.944Z,0
2018-08-06T03:39:57.227Z,0
2018-08-06T03:40:57.491Z,0
2018-08-06T03:41:56.959Z,0
2018-08-06T03:42:57.531Z,0
2018-08-06T03:43:57.733Z,0
2018-08-06T03:44:56.975Z,0
2018-08-06T03:45:57.497Z,0
2018-08-06T03:46:57.811Z,0
2018-08-06T03:47:56.709Z,0
2018-08-06T03:48:58.560Z,0
2018-08-06T03:49:57.492Z,0
2018-08-06T03:50:57.230Z,0
2018-08-06T03:51:57.500Z,0
2018-08-06T03:52:57.689Z,0
2018-08-06T03:53:57.777Z,0
2018-08-06T03:54:57.493Z,5
2018-08-06T03:55:57.755Z,5
2018-08-06T03:56:56.987Z,5
2018-08-06T03:57:57.039Z,5
2018-08-06T03:58:56.765Z,5
2018-08-06T03:59:57.256Z,5
2018-08-06T04:00:57.286Z,5
2018-08-06T04:01:57.273Z,5
2018-08-06T04:02:57.001Z,5
2018-08-06T04:03:57.517Z,10
2018-08-06T04:04:57.274Z,10
2018-08-06T04:05:57.277Z,10
2018-08-06T04:06:56.997Z,10
2018-08-06T04:07:57.506Z,10
2018-08-06T04:08:57.253Z,10
2018-08-06T04:09:57.263Z,15
2018-08-06T04:10:57.513Z,15
2018-08-06T04:11:57.268Z,15
2018-08-06T04:12:57.295Z,15
2018-08-06T04:13:57.321Z,20
2018-08-06T04:14:57.291Z,20
2018-08-06T04:15:57.308Z,20
2018-08-06T04:16:57.330Z,20
2018-08-06T04:17:57.579Z,20
2018-08-06T04:18:58.872Z,25
2018-08-06T04:19:56.787Z,25
2018-08-06T04:20:57.299Z,25
2018-08-06T04:21:57.839Z,25
2018-08-06T04:22:57.567Z,30
2018-08-06T04:23:56.792Z,30
2018-08-06T04:24:57.326Z,30
2018-08-06T04:25:56.790Z,30
2018-08-06T04:26:57.825Z,30
2018-08-06T04:27:57.326Z,30
2018-08-06T04:28:57.047Z,30
2018-08-06T04:29:57.325Z,30
2018-08-06T04:30:57.347Z,35
2018-08-06T04:31:57.589Z,45
2018-08-06T04:32:57.226Z,55
2018-08-06T04:33:57.716Z,55
2018-08-06T04:34:57.612Z,45
2018-08-06T04:35:57.335Z,45
2018-08-06T04:36:57.101Z,45
2018-08-06T04:37:57.364Z,40
2018-08-06T04:38:57.074Z,45
2018-08-06T04:39:57.127Z,50
2018-08-06T04:40:57.337Z,55
2018-08-06T04:41:57.866Z,60
2018-08-06T04:42:57.589Z,50
2018-08-06T04:43:57.102Z,55
2018-08-06T04:44:57.354Z,50
2018-08-06T04:45:58.072Z,55
2018-08-06T04:46:56.838Z,65
2018-08-06T04:47:57.176Z,85
2018-08-06T04:48:57.618Z,90
2018-08-06T04:49:58.702Z,90
2018-08-06T04:50:57.111Z,85
2018-08-06T04:51:57.127Z,125
2018-08-06T04:52:57.639Z,150
2018-08-06T04:53:57.392Z,155
2018-08-06T04:54:57.915Z,160
2018-08-06T04:55:57.641Z,165
2018-08-06T04:56:57.654Z,165
2018-08-06T04:57:57.381Z,170
2018-08-06T04:58:57.641Z,170
2018-08-06T04:59:57.678Z,175
2018-08-06T05:00:57.681Z,200
2018-08-06T05:01:57.689Z,200
2018-08-06T05:02:57.927Z,205
2018-08-06T05:03:57.682Z,205
2018-08-06T05:04:57.682Z,160
2018-08-06T05:05:57.676Z,210
2018-08-06T05:06:57.876Z,215
2018-08-06T05:07:57.748Z,220
2018-08-06T05:08:57.170Z,220
2018-08-06T05:09:57.470Z,225
2018-08-06T05:10:57.465Z,225
2018-08-06T05:11:57.944Z,225
2018-08-06T05:12:57.750Z,220
2018-08-06T05:13:57.742Z,215
2018-08-06T05:14:57.456Z,220
2018-08-06T05:15:57.750Z,220
2018-08-06T05:16:57.751Z,220
2018-08-06T05:17:57.528Z,230
2018-08-06T05:18:57.493Z,220
2018-08-06T05:19:57.228Z,220
2018-08-06T05:20:57.746Z,220
2018-08-06T05:21:57.506Z,215
2018-08-06T05:22:57.249Z,205
2018-08-06T05:23:57.785Z,190
2018-08-06T05:24:58.487Z,175
2018-08-06T05:25:57.514Z,155
2018-08-06T05:26:57.782Z,155
2018-08-06T05:27:57.539Z,150
2018-08-06T05:28:58.069Z,150
2018-08-06T05:29:58.067Z,145
2018-08-06T05:30:57.314Z,150
2018-08-06T05:31:57.828Z,150
2018-08-06T05:32:57.559Z,150
2018-08-06T05:33:57.848Z,150
2018-08-06T05:34:57.335Z,155
2018-08-06T05:35:57.880Z,145
2018-08-06T05:36:58.112Z,155
2018-08-06T05:37:57.596Z,155
2018-08-06T05:38:57.572Z,160
2018-08-06T05:39:57.711Z,165
2018-08-06T05:40:57.858Z,170
2018-08-06T05:41:57.880Z,175
2018-08-06T05:42:57.880Z,180
2018-08-06T05:43:57.608Z,180
2018-08-06T05:44:57.368Z,175
2018-08-06T05:45:57.618Z,180
2018-08-06T05:46:57.891Z,205
2018-08-06T05:47:57.639Z,210
2018-08-06T05:48:57.616Z,210
2018-08-06T05:49:58.143Z,190
2018-08-06T05:50:58.162Z,165
2018-08-06T05:51:57.917Z,155
2018-08-06T05:52:57.677Z,150
2018-08-06T05:53:57.681Z,145
2018-08-06T05:54:57.701Z,140
2018-08-06T05:55:57.678Z,145
2018-08-06T05:56:57.684Z,150
2018-08-06T05:57:58.198Z,150
2018-08-06T05:58:58.209Z,155
2018-08-06T05:59:57.931Z,165
2018-08-06T06:00:57.946Z,165
2018-08-06T06:01:57.948Z,180
2018-08-06T06:02:57.503Z,180
2018-08-06T06:03:57.702Z,165
2018-08-06T06:04:57.714Z,170
2018-08-06T06:05:57.959Z,170
2018-08-06T06:06:57.715Z,190
2018-08-06T06:07:58.017Z,190
2018-08-06T06:08:57.997Z,190
2018-08-06T06:09:57.735Z,190
2018-08-06T06:10:57.750Z,185
2018-08-06T06:11:57.516Z,185
2018-08-06T06:12:57.764Z,190
2018-08-06T06:13:58.263Z,190
2018-08-06T06:14:57.764Z,165
2018-08-06T06:15:57.504Z,205
2018-08-06T06:16:58.016Z,220
2018-08-06T06:17:57.780Z,210
2018-08-06T06:18:57.522Z,205
2018-08-06T06:19:59.873Z,220
2018-08-06T06:20:57.769Z,260
2018-08-06T06:21:57.767Z,280
2018-08-06T06:22:57.505Z,275
2018-08-06T06:23:57.298Z,265
2018-08-06T06:24:57.804Z,260
2018-08-06T06:25:58.292Z,260
2018-08-06T06:26:57.813Z,260
2018-08-06T06:27:58.330Z,280
2018-08-06T06:28:57.825Z,295
2018-08-06T06:29:57.810Z,290
2018-08-06T06:30:58.118Z,295
2018-08-06T06:31:57.594Z,290
2018-08-06T06:32:57.831Z,275
2018-08-06T06:33:57.845Z,280
2018-08-06T06:34:58.512Z,320
2018-08-06T06:35:57.868Z,330
2018-08-06T06:36:57.843Z,335
2018-08-06T06:37:57.867Z,335
2018-08-06T06:38:58.158Z,335
2018-08-06T06:39:57.628Z,335
2018-08-06T06:40:57.888Z,325
2018-08-06T06:41:58.010Z,230
2018-08-06T06:42:57.901Z,340
2018-08-06T06:43:58.176Z,215
2018-08-06T06:44:57.653Z,285
2018-08-06T06:45:58.431Z,330
2018-08-06T06:46:57.917Z,365
2018-08-06T06:47:57.682Z,340
2018-08-06T06:48:58.225Z,320
2018-08-06T06:49:57.697Z,260
2018-08-06T06:50:57.944Z,280
2018-08-06T06:51:57.950Z,300
2018-08-06T06:52:58.236Z,245
2018-08-06T06:53:57.976Z,360
2018-08-06T06:54:57.712Z,315
2018-08-06T06:55:58.241Z,235
2018-08-06T06:56:57.728Z,280
2018-08-06T06:57:58.512Z,295
2018-08-06T06:58:58.301Z,330
2018-08-06T06:59:58.364Z,295
2018-08-06T07:00:58.530Z,305
2018-08-06T07:01:58.344Z,305
2018-08-06T07:02:58.291Z,320
2018-08-06T07:03:58.077Z,330
2018-08-06T07:04:58.068Z,315
2018-08-06T07:05:58.064Z,285
2018-08-06T07:06:57.821Z,295
2018-08-06T07:07:58.065Z,315
2018-08-06T07:08:58.348Z,330
2018-08-06T07:09:58.603Z,345
2018-08-06T07:10:58.599Z,330
2018-08-06T07:11:58.362Z,315
2018-08-06T07:12:58.118Z,300
2018-08-06T07:13:58.507Z,285
2018-08-06T07:14:57.895Z,285
2018-08-06T07:15:58.659Z,270
2018-08-06T07:16:58.670Z,280
2018-08-06T07:17:58.660Z,240
2018-08-06T07:18:58.424Z,335
2018-08-06T07:19:57.908Z,265
2018-08-06T07:20:58.436Z,340
2018-08-06T07:21:57.925Z,335
2018-08-06T07:22:58.196Z,270
2018-08-06T07:23:58.736Z,300
2018-08-06T07:24:58.464Z,285
2018-08-06T07:25:58.354Z,285
2018-08-06T07:26:58.490Z,310
2018-08-06T07:27:58.525Z,275
2018-08-06T07:28:58.269Z,250
2018-08-06T07:29:58.515Z,250
2018-08-06T07:30:58.772Z,235
2018-08-06T07:31:58.017Z,275
2018-08-06T07:32:58.536Z,290
2018-08-06T07:33:58.491Z,285
2018-08-06T07:34:58.799Z,325
2018-08-06T07:35:58.297Z,330
2018-08-06T07:36:58.584Z,320
2018-08-06T07:37:58.824Z,330
2018-08-06T07:38:58.851Z,335
2018-08-06T07:39:58.332Z,350
2018-08-06T07:40:58.334Z,335
2018-08-06T07:41:58.614Z,285
2018-08-06T07:42:58.373Z,265
2018-08-06T07:43:58.367Z,250
2018-08-06T07:44:58.643Z,265
2018-08-06T07:45:58.494Z,270
2018-08-06T07:46:58.473Z,285
2018-08-06T07:47:58.730Z,300
2018-08-06T07:48:58.664Z,320
2018-08-06T07:49:58.649Z,355
2018-08-06T07:50:58.432Z,345
2018-08-06T07:51:58.686Z,305
2018-08-06T07:52:58.690Z,340
2018-08-06T07:53:58.702Z,285
2018-08-06T07:54:58.453Z,295
2018-08-06T07:55:58.437Z,290
2018-08-06T07:56:58.446Z,305
2018-08-06T07:57:58.209Z,315
2018-08-06T07:58:58.991Z,310
2018-08-06T07:59:58.818Z,305
2018-08-06T08:00:58.468Z,310
2018-08-06T08:01:58.229Z,320
2018-08-06T08:02:59.023Z,325
2018-08-06T08:03:58.524Z,320
2018-08-06T08:04:58.258Z,330
2018-08-06T08:05:58.264Z,325
2018-08-06T08:06:58.806Z,325
2018-08-06T08:07:58.281Z,315
2018-08-06T08:08:58.826Z,335
2018-08-06T08:09:58.540Z,330
2018-08-06T08:10:58.810Z,330
2018-08-06T08:11:58.992Z,335
2018-08-06T08:12:58.832Z,325
2018-08-06T08:13:58.834Z,325
2018-08-06T08:14:58.838Z,315
2018-08-06T08:15:58.908Z,305
2018-08-06T08:16:58.851Z,315
2018-08-06T08:17:58.865Z,330
2018-08-06T08:18:59.126Z,325
2018-08-06T08:19:59.482Z,325
2018-08-06T08:21:00.507Z,320
2018-08-06T08:21:58.903Z,320
2018-08-06T08:22:58.402Z,305
2018-08-06T08:23:58.667Z,305
2018-08-06T08:24:59.176Z,325
2018-08-06T08:25:58.915Z,315
2018-08-06T08:26:59.193Z,335
2018-08-06T08:27:58.932Z,330
2018-08-06T08:28:58.716Z,325
2018-08-06T08:29:58.693Z,335
2018-08-06T08:30:58.716Z,330
2018-08-06T08:31:59.225Z,320
2018-08-06T08:32:59.009Z,320
2018-08-06T08:33:59.476Z,325
2018-08-06T08:34:58.751Z,325
2018-08-06T08:35:58.746Z,330
2018-08-06T08:36:59.024Z,325
2018-08-06T08:37:59.270Z,315
2018-08-06T08:38:58.803Z,310
2018-08-06T08:39:59.040Z,315
2018-08-06T08:40:59.031Z,315
2018-08-06T08:41:59.060Z,325
2018-08-06T08:42:59.056Z,325
2018-08-06T08:43:59.318Z,325
2018-08-06T08:44:58.818Z,315
2018-08-06T08:45:59.189Z,320
2018-08-06T08:46:59.336Z,320
2018-08-06T08:47:58.870Z,320
2018-08-06T08:48:59.113Z,320
2018-08-06T08:49:58.851Z,315
2018-08-06T08:51:00.068Z,315
2018-08-06T08:51:58.870Z,315
2018-08-06T08:52:59.180Z,305
2018-08-06T08:53:59.145Z,285
2018-08-06T08:54:59.171Z,305
2018-08-06T08:55:59.180Z,315
2018-08-06T08:56:59.163Z,310
2018-08-06T08:57:59.464Z,305
2018-08-06T08:58:59.486Z,305
2018-08-06T08:59:58.928Z,300
2018-08-06T09:00:58.422Z,295
2018-08-06T09:01:59.177Z,290
2018-08-06T09:02:59.218Z,305
2018-08-06T09:03:59.206Z,310
2018-08-06T09:04:58.713Z,305
2018-08-06T09:05:59.492Z,305
2018-08-06T09:06:59.518Z,305
2018-08-06T09:07:59.260Z,310
2018-08-06T09:08:59.270Z,310
2018-08-06T09:09:59.269Z,305
2018-08-06T09:10:59.533Z,310
2018-08-06T09:11:59.269Z,315
2018-08-06T09:12:59.549Z,325
2018-08-06T09:13:59.484Z,325
2018-08-06T09:14:59.563Z,320
2018-08-06T09:15:59.039Z,315
2018-08-06T09:16:59.550Z,315
2018-08-06T09:17:59.332Z,315
2018-08-06T09:18:59.329Z,325
2018-08-06T09:19:59.601Z,305
2018-08-06T09:21:02.233Z,305
2018-08-06T09:21:59.332Z,275
2018-08-06T09:22:59.580Z,295
2018-08-06T09:23:59.607Z,280
2018-08-06T09:24:59.109Z,295
2018-08-06T09:26:00.426Z,300
2018-08-06T09:26:59.156Z,315
2018-08-06T09:27:59.663Z,320
2018-08-06T09:28:59.627Z,325
2018-08-06T09:29:59.120Z,325
2018-08-06T09:30:59.124Z,320
2018-08-06T09:31:59.420Z,305
2018-08-06T09:32:59.388Z,295
2018-08-06T09:33:59.327Z,315
2018-08-06T09:34:59.155Z,315
2018-08-06T09:35:59.156Z,315
2018-08-06T09:36:59.425Z,315
2018-08-06T09:37:59.771Z,305
2018-08-06T09:38:59.431Z,315
2018-08-06T09:39:59.442Z,315
2018-08-06T09:40:59.260Z,320
2018-08-06T09:41:59.722Z,320
2018-08-06T09:42:59.531Z,315
2018-08-06T09:43:59.213Z,315
2018-08-06T09:44:59.770Z,310
2018-08-06T09:45:59.489Z,310
2018-08-06T09:46:59.778Z,305
2018-08-06T09:47:59.781Z,295
2018-08-06T09:48:59.492Z,295
2018-08-06T09:49:59.770Z,300
2018-08-06T09:51:01.094Z,315
2018-08-06T09:51:58.743Z,305
2018-08-06T09:52:59.990Z,310
2018-08-06T09:53:59.280Z,315
2018-08-06T09:54:59.276Z,310
2018-08-06T09:55:59.566Z,305
2018-08-06T09:56:59.862Z,305
2018-08-06T09:57:59.580Z,305
2018-08-06T09:58:59.582Z,305
2018-08-06T09:59:59.583Z,310
2018-08-06T10:00:59.346Z,320
2018-08-06T10:01:59.838Z,315
2018-08-06T10:02:59.901Z,315
2018-08-06T10:03:59.603Z,315
2018-08-06T10:04:59.345Z,305
2018-08-06T10:06:00.592Z,310
2018-08-06T10:06:59.383Z,310
2018-08-06T10:07:59.647Z,300
2018-08-06T10:08:59.391Z,290
2018-08-06T10:09:59.401Z,295
2018-08-06T10:10:59.121Z,295
2018-08-06T10:12:00.109Z,300
2018-08-06T10:12:59.427Z,290
2018-08-06T10:13:59.928Z,295
2018-08-06T10:14:59.421Z,290
2018-08-06T10:15:59.675Z,280
2018-08-06T10:17:01.048Z,290
2018-08-06T10:17:59.696Z,280
2018-08-06T10:18:59.750Z,295
2018-08-06T10:19:59.730Z,290
2018-08-06T10:20:59.966Z,285
2018-08-06T10:22:00.258Z,280
2018-08-06T10:22:59.974Z,280
2018-08-06T10:23:59.235Z,280
2018-08-06T10:24:59.481Z,275
2018-08-06T10:25:59.499Z,250
2018-08-06T10:27:00.044Z,270
2018-08-06T10:27:59.501Z,265
2018-08-06T10:28:59.768Z,285
2018-08-06T10:29:59.765Z,270
2018-08-06T10:31:00.050Z,270
2018-08-06T10:31:59.800Z,260
2018-08-06T10:33:00.073Z,260
2018-08-06T10:33:59.824Z,255
2018-08-06T10:34:59.364Z,255
2018-08-06T10:36:00.081Z,255
2018-08-06T10:36:59.828Z,255
2018-08-06T10:38:00.084Z,255
2018-08-06T10:38:59.827Z,255
2018-08-06T10:39:59.834Z,255
2018-08-06T10:40:59.618Z,250
2018-08-06T10:41:59.088Z,250
2018-08-06T10:42:59.343Z,250
2018-08-06T10:43:59.854Z,255
2018-08-06T10:44:59.612Z,255
2018-08-06T10:45:59.618Z,245
2018-08-06T10:46:59.642Z,245
2018-08-06T10:47:59.905Z,245
2018-08-06T10:48:59.896Z,250
2018-08-06T10:49:59.918Z,240
2018-08-06T10:51:00.159Z,250
2018-08-06T10:52:00.456Z,240
2018-08-06T10:52:59.905Z,240
2018-08-06T10:54:00.554Z,230
2018-08-06T10:54:59.965Z,240
2018-08-06T10:55:59.480Z,235
2018-08-06T10:56:59.777Z,245
2018-08-06T10:57:59.680Z,240
2018-08-06T10:58:59.698Z,245
2018-08-06T10:59:59.985Z,240
2018-08-06T11:01:00.256Z,245
2018-08-06T11:01:59.484Z,245
2018-08-06T11:03:00.287Z,240
2018-08-06T11:04:00.069Z,225
2018-08-06T11:05:00.044Z,240
2018-08-06T11:06:00.025Z,235
2018-08-06T11:07:00.309Z,240
2018-08-06T11:07:59.758Z,250
2018-08-06T11:09:00.039Z,255
2018-08-06T11:10:00.120Z,255
2018-08-06T11:10:59.786Z,250
2018-08-06T11:12:00.101Z,250
2018-08-06T11:12:59.828Z,250
2018-08-06T11:14:00.143Z,255
2018-08-06T11:15:00.088Z,255
2018-08-06T11:15:59.885Z,250
2018-08-06T11:17:00.368Z,250
2018-08-06T11:17:59.882Z,250
2018-08-06T11:18:59.587Z,250
2018-08-06T11:19:59.840Z,245
2018-08-06T11:21:00.114Z,240
2018-08-06T11:21:59.857Z,235
2018-08-06T11:23:00.624Z,225
2018-08-06T11:24:00.391Z,230
2018-08-06T11:24:59.884Z,225
2018-08-06T11:26:00.394Z,230
2018-08-06T11:26:59.655Z,235
2018-08-06T11:28:00.173Z,235
2018-08-06T11:28:59.429Z,245
2018-08-06T11:29:59.668Z,245
2018-08-06T11:31:00.454Z,245
2018-08-06T11:32:00.430Z,240
2018-08-06T11:32:59.936Z,230
2018-08-06T11:34:00.227Z,230
2018-08-06T11:35:00.488Z,225
2018-08-06T11:35:59.996Z,230
2018-08-06T11:37:00.116Z,230
2018-08-06T11:37:59.463Z,220
2018-08-06T11:38:59.981Z,230
2018-08-06T11:39:59.744Z,235
2018-08-06T11:40:59.768Z,235
2018-08-06T11:42:00.251Z,235
2018-08-06T11:43:00.507Z,240
2018-08-06T11:44:00.267Z,235
2018-08-06T11:45:00.530Z,235
2018-08-06T11:46:00.324Z,230
2018-08-06T11:46:59.520Z,225
2018-08-06T11:48:00.346Z,230
2018-08-06T11:49:00.750Z,230
2018-08-06T11:50:00.574Z,230
2018-08-06T11:51:00.325Z,225
2018-08-06T11:52:00.323Z,230
2018-08-06T11:53:00.325Z,230
2018-08-06T11:54:00.633Z,225
2018-08-06T11:55:00.095Z,220
2018-08-06T11:55:59.864Z,230
2018-08-06T11:57:00.642Z,230
2018-08-06T11:58:00.110Z,230
2018-08-06T11:59:00.115Z,230
2018-08-06T12:00:00.123Z,230
2018-08-06T12:01:00.391Z,230
2018-08-06T12:02:00.739Z,230
2018-08-06T12:02:59.899Z,235
2018-08-06T12:04:00.526Z,230
2018-08-06T12:05:00.410Z,225
2018-08-06T12:06:00.442Z,225
2018-08-06T12:07:00.186Z,230
2018-08-06T12:08:00.451Z,230
2018-08-06T12:09:00.450Z,230
2018-08-06T12:09:59.947Z,215
2018-08-06T12:11:00.187Z,220
2018-08-06T12:12:00.458Z,225
2018-08-06T12:13:00.457Z,225
2018-08-06T12:13:59.708Z,225
2018-08-06T12:15:00.469Z,225
2018-08-06T12:16:00.237Z,225
2018-08-06T12:17:00.751Z,235
2018-08-06T12:17:59.982Z,230
2018-08-06T12:19:00.244Z,225
2018-08-06T12:20:00.023Z,225
2018-08-06T12:21:00.859Z,225
2018-08-06T12:21:59.786Z,220
2018-08-06T12:23:00.528Z,220
2018-08-06T12:24:00.045Z,220
2018-08-06T12:25:00.610Z,220
2018-08-06T12:26:01.008Z,220
2018-08-06T12:27:00.580Z,220
2018-08-06T12:28:00.868Z,220
2018-08-06T12:29:00.591Z,220
2018-08-06T12:30:00.062Z,220
2018-08-06T12:31:00.609Z,220
2018-08-06T12:32:00.075Z,220
2018-08-06T12:33:00.336Z,225
2018-08-06T12:34:00.873Z,225
2018-08-06T12:35:00.368Z,225
2018-08-06T12:36:00.633Z,225
2018-08-06T12:37:00.619Z,225
2018-08-06T12:38:00.750Z,225
2018-08-06T12:39:00.658Z,225
2018-08-06T12:40:00.400Z,225
2018-08-06T12:41:00.662Z,230
2018-08-06T12:42:00.917Z,230
2018-08-06T12:43:00.919Z,225
2018-08-06T12:44:00.688Z,230
2018-08-06T12:45:00.415Z,215
2018-08-06T12:46:00.946Z,220
2018-08-06T12:47:00.442Z,220
2018-08-06T12:48:00.446Z,220
2018-08-06T12:49:00.466Z,220
2018-08-06T12:50:00.489Z,220
2018-08-06T12:51:00.479Z,220
2018-08-06T12:52:00.760Z,220
2018-08-06T12:53:01.050Z,220
2018-08-06T12:54:00.498Z,220
2018-08-06T12:55:00.752Z,220
2018-08-06T12:56:00.508Z,220
2018-08-06T12:57:00.793Z,215
2018-08-06T12:58:01.030Z,215
2018-08-06T12:59:00.842Z,215
2018-08-06T13:00:00.272Z,215
2018-08-06T13:01:00.816Z,215
2018-08-06T13:02:00.603Z,215
2018-08-06T13:03:00.289Z,215
2018-08-06T13:04:00.580Z,215
2018-08-06T13:05:00.928Z,215
2018-08-06T13:06:00.577Z,220
2018-08-06T13:07:00.578Z,225
2018-08-06T13:08:00.560Z,230
2018-08-06T13:09:00.613Z,235
2018-08-06T13:10:01.104Z,225
2018-08-06T13:11:00.604Z,230
2018-08-06T13:12:00.349Z,230
2018-08-06T13:13:01.150Z,225
2018-08-06T13:14:00.885Z,220
2018-08-06T13:15:00.625Z,220
2018-08-06T13:16:00.637Z,215
2018-08-06T13:17:00.634Z,215
2018-08-06T13:18:01.103Z,215
2018-08-06T13:19:01.226Z,215
2018-08-06T13:20:01.198Z,215
2018-08-06T13:21:00.929Z,210
2018-08-06T13:22:00.428Z,210
2018-08-06T13:23:02.296Z,205
2018-08-06T13:24:00.975Z,205
2018-08-06T13:25:01.228Z,210
2018-08-06T13:26:01.247Z,210
2018-08-06T13:27:00.454Z,210
2018-08-06T13:28:01.223Z,210
2018-08-06T13:29:01.016Z,210
2018-08-06T13:30:00.475Z,210
2018-08-06T13:31:01.256Z,210
2018-08-06T13:32:00.750Z,205
2018-08-06T13:33:00.240Z,205
2018-08-06T13:34:00.774Z,205
2018-08-06T13:35:00.771Z,215
2018-08-06T13:36:00.558Z,210
2018-08-06T13:37:01.341Z,210
2018-08-06T13:38:01.035Z,210
2018-08-06T13:39:00.861Z,210
2018-08-06T13:40:00.329Z,210
2018-08-06T13:41:00.828Z,210
2018-08-06T13:42:00.846Z,210
2018-08-06T13:43:01.092Z,210
2018-08-06T13:44:00.840Z,210
2018-08-06T13:45:01.083Z,215
2018-08-06T13:46:00.453Z,215
2018-08-06T13:47:01.488Z,215
2018-08-06T13:48:00.599Z,210
2018-08-06T13:49:01.155Z,210
2018-08-06T13:50:00.618Z,210
2018-08-06T13:51:01.139Z,210
2018-08-06T13:52:01.174Z,210
2018-08-06T13:53:02.349Z,210
2018-08-06T13:54:01.240Z,210
2018-08-06T13:55:00.914Z,210
2018-08-06T13:56:01.181Z,210
2018-08-06T13:57:01.173Z,210
2018-08-06T13:58:00.923Z,210
2018-08-06T13:59:01.195Z,210
2018-08-06T14:00:00.939Z,210
2018-08-06T14:01:00.982Z,210
2018-08-06T14:02:00.950Z,210
2018-08-06T14:03:01.232Z,215
2018-08-06T14:04:01.495Z,215
2018-08-06T14:05:01.233Z,215